createdAt,value
2023-04-29T00:01:10.069Z,8.05
2023-04-29T00:03:37.202Z,8.04
2023-04-29T00:06:05.005Z,8.03
2023-04-29T00:08:32.544Z,8.01
2023-04-29T00:10:59.489Z,8.00
2023-04-29T00:13:26.641Z,7.98
2023-04-29T00:15:53.894Z,7.95
2023-04-29T00:18:20.945Z,7.92
2023-04-29T00:20:47.982Z,7.90
2023-04-29T00:23:14.926Z,7.87
2023-04-29T00:25:41.882Z,7.82
2023-04-29T00:28:08.871Z,7.79
2023-04-29T00:30:36.165Z,7.76
2023-04-29T00:33:04.078Z,7.72
2023-04-29T00:35:31.423Z,7.68
2023-04-29T00:37:58.468Z,7.64
2023-04-29T00:40:25.478Z,7.62
2023-04-29T00:42:52.530Z,7.59
2023-04-29T00:45:19.903Z,7.57
2023-04-29T00:47:47.406Z,7.55
2023-04-29T00:50:14.487Z,7.51
2023-04-29T00:52:41.672Z,7.48
2023-04-29T00:55:09.228Z,7.46
2023-04-29T00:57:36.263Z,7.42
2023-04-29T01:00:04.414Z,7.40
2023-04-29T01:02:31.802Z,7.37
2023-04-29T01:04:58.917Z,7.36
2023-04-29T01:07:37.948Z,7.33
2023-04-29T01:10:23.331Z,7.30
2023-04-29T01:13:10.192Z,7.28
2023-04-29T01:16:04.309Z,7.27
2023-04-29T01:18:41.460Z,7.25
2023-04-29T01:21:09.261Z,7.25
2023-04-29T01:23:36.414Z,7.24
2023-04-29T01:26:03.771Z,7.23
2023-04-29T01:28:49.558Z,7.22
2023-04-29T01:31:28.720Z,7.22
2023-04-29T01:34:08.738Z,7.20
2023-04-29T01:36:45.209Z,7.19
2023-04-29T01:39:12.762Z,7.19
2023-04-29T01:41:55.420Z,7.17
2023-04-29T01:44:29.271Z,7.17
2023-04-29T01:46:56.696Z,7.16
2023-04-29T01:49:30.442Z,7.14
2023-04-29T01:51:57.907Z,7.11
2023-04-29T01:54:25.909Z,7.10
2023-04-29T01:56:53.136Z,7.10
2023-04-29T01:59:30.223Z,7.09
2023-04-29T02:02:37.026Z,7.07
2023-04-29T02:05:11.825Z,7.05
2023-04-29T02:07:42.512Z,7.05
2023-04-29T02:10:10.086Z,7.04
2023-04-29T02:12:37.494Z,7.02
2023-04-29T02:15:05.047Z,7.00
2023-04-29T02:21:02.114Z,7.00
2023-04-29T02:23:29.747Z,6.95
2023-04-29T02:25:56.694Z,6.93
2023-04-29T02:28:24.763Z,6.89
2023-04-29T02:30:52.022Z,6.87
2023-04-29T02:33:19.267Z,6.83
2023-04-29T02:35:46.520Z,6.79
2023-04-29T02:38:13.669Z,6.77
2023-04-29T02:40:44.394Z,6.75
2023-04-29T02:43:12.077Z,6.73
2023-04-29T02:45:39.372Z,6.70
2023-04-29T02:48:07.365Z,6.67
2023-04-29T02:50:34.741Z,6.66
2023-04-29T02:53:02.192Z,6.65
2023-04-29T02:55:29.345Z,6.64
2023-04-29T02:57:59.363Z,6.62
2023-04-29T03:00:26.312Z,6.61
2023-04-29T03:02:53.721Z,6.62
2023-04-29T03:05:20.915Z,6.61
2023-04-29T03:07:47.965Z,6.61
2023-04-29T03:10:15.113Z,6.64
2023-04-29T03:12:42.358Z,6.65
2023-04-29T03:15:10.847Z,6.67
2023-04-29T03:17:38.012Z,6.69
2023-04-29T03:20:06.403Z,6.70
2023-04-29T03:22:33.720Z,6.72
2023-04-29T03:25:00.887Z,6.73
2023-04-29T03:27:28.222Z,6.74
2023-04-29T03:29:55.404Z,6.75
2023-04-29T03:32:22.617Z,6.76
2023-04-29T03:34:50.793Z,6.79
2023-04-29T03:37:27.365Z,6.81
2023-04-29T03:40:00.454Z,6.81
2023-04-29T03:42:27.504Z,6.83
2023-04-29T03:44:54.550Z,6.85
2023-04-29T03:47:21.486Z,6.86
2023-04-29T03:49:49.510Z,6.88
2023-04-29T03:52:16.921Z,6.90
2023-04-29T03:54:44.540Z,6.93
2023-04-29T03:57:11.929Z,6.96
2023-04-29T03:59:39.076Z,6.96
2023-04-29T04:02:06.910Z,6.97
2023-04-29T04:04:34.700Z,6.98
2023-04-29T04:07:01.866Z,7.00
2023-04-29T04:09:31.458Z,7.02
2023-04-29T04:11:59.020Z,7.04
2023-04-29T04:14:26.172Z,7.05
2023-04-29T04:16:53.115Z,7.05
2023-04-29T04:19:20.877Z,7.05
2023-04-29T04:21:47.923Z,7.06
2023-04-29T04:24:14.973Z,7.07
2023-04-29T04:26:42.732Z,7.06
2023-04-29T04:29:22.278Z,7.08
2023-04-29T04:32:02.927Z,7.08
2023-04-29T04:34:30.301Z,7.11
2023-04-29T04:36:58.060Z,7.13
2023-04-29T04:39:25.737Z,7.16
2023-04-29T04:41:53.497Z,7.17
2023-04-29T04:44:21.151Z,7.20
2023-04-29T04:47:20.763Z,7.24
2023-04-29T04:50:04.906Z,7.27
2023-04-29T04:52:32.057Z,7.30
2023-04-29T04:55:15.103Z,7.34
2023-04-29T04:57:44.481Z,7.39
2023-04-29T05:00:13.397Z,7.42
2023-04-29T05:02:40.595Z,7.48
2023-04-29T05:05:08.294Z,7.56
2023-04-29T05:07:36.559Z,7.62
2023-04-29T05:10:06.887Z,7.66
2023-04-29T05:12:35.499Z,7.68
2023-04-29T05:15:04.517Z,7.70
2023-04-29T05:17:31.974Z,7.75
2023-04-29T05:19:59.485Z,7.86
2023-04-29T05:22:27.030Z,7.95
2023-04-29T05:24:55.416Z,8.05
2023-04-29T05:27:22.969Z,8.13
2023-04-29T05:29:50.483Z,8.24
2023-04-29T05:32:18.291Z,8.37
2023-04-29T05:34:45.566Z,8.49
2023-04-29T05:37:12.589Z,8.57
2023-04-29T05:39:54.363Z,8.60
2023-04-29T05:42:21.526Z,8.68
2023-04-29T05:44:51.449Z,8.80
2023-04-29T05:47:18.389Z,8.85
2023-04-29T05:49:45.747Z,8.96
2023-04-29T05:52:13.102Z,9.10
2023-04-29T05:54:44.455Z,9.27
2023-04-29T05:57:12.309Z,9.42
2023-04-29T05:59:40.277Z,9.54
2023-04-29T06:02:07.224Z,9.63
2023-04-29T06:04:36.696Z,9.77
2023-04-29T06:07:20.178Z,9.95
2023-04-29T06:10:11.180Z,10.03
2023-04-29T06:12:40.777Z,10.02
2023-04-29T06:15:08.540Z,10.16
2023-04-29T06:17:35.636Z,10.26
2023-04-29T06:20:02.635Z,10.36
2023-04-29T06:22:29.892Z,10.54
2023-04-29T06:24:57.039Z,10.68
2023-04-29T06:27:37.189Z,10.88
2023-04-29T06:30:05.837Z,10.97
2023-04-29T06:32:32.960Z,11.03
2023-04-29T06:34:59.970Z,11.12
2023-04-29T06:37:35.881Z,11.28
2023-04-29T06:40:14.232Z,11.39
2023-04-29T06:43:19.901Z,11.39
2023-04-29T06:45:47.138Z,11.33
2023-04-29T06:48:22.889Z,11.13
2023-04-29T06:50:54.491Z,10.93
2023-04-29T06:53:21.593Z,10.72
2023-04-29T06:55:48.635Z,10.63
2023-04-29T06:58:16.619Z,10.62
2023-04-29T07:00:47.740Z,10.62
2023-04-29T07:03:15.372Z,10.58
2023-04-29T07:05:45.557Z,10.59
2023-04-29T07:08:13.557Z,10.65
2023-04-29T07:10:41.891Z,10.70
2023-04-29T07:13:08.929Z,10.84
2023-04-29T07:15:36.581Z,10.97
2023-04-29T07:18:05.567Z,11.14
2023-04-29T07:20:32.727Z,11.32
2023-04-29T07:22:59.773Z,11.61
2023-04-29T07:25:27.998Z,11.94
2023-04-29T07:27:56.735Z,12.14
2023-04-29T07:30:25.411Z,12.04
2023-04-29T07:32:52.698Z,11.91
2023-04-29T07:35:19.922Z,11.95
2023-04-29T07:37:46.977Z,12.20
2023-04-29T07:40:14.223Z,12.49
2023-04-29T07:42:41.278Z,12.72
2023-04-29T07:45:08.840Z,12.86
2023-04-29T07:47:36.198Z,12.99
2023-04-29T07:50:03.537Z,13.17
2023-04-29T07:52:31.194Z,13.33
2023-04-29T07:54:58.139Z,13.52
2023-04-29T07:57:25.495Z,13.67
2023-04-29T07:59:55.719Z,13.72
2023-04-29T08:02:23.503Z,13.65
2023-04-29T08:04:51.820Z,13.74
2023-04-29T08:07:19.307Z,14.01
2023-04-29T08:09:46.582Z,14.17
2023-04-29T08:12:13.718Z,14.16
2023-04-29T08:14:40.960Z,14.12
2023-04-29T08:17:08.959Z,13.95
2023-04-29T08:19:36.720Z,13.69
2023-04-29T08:22:04.490Z,13.44
2023-04-29T08:24:33.657Z,13.30
2023-04-29T08:27:01.621Z,13.23
2023-04-29T08:29:28.795Z,13.09
2023-04-29T08:31:56.055Z,13.03
2023-04-29T08:34:24.201Z,12.94
2023-04-29T08:36:51.246Z,12.93
2023-04-29T08:40:21.038Z,12.90
2023-04-29T08:42:49.055Z,12.86
2023-04-29T08:45:17.511Z,13.03
2023-04-29T08:47:44.446Z,13.10
2023-04-29T08:50:11.546Z,13.06
2023-04-29T08:52:38.551Z,13.02
2023-04-29T08:55:06.111Z,13.01
2023-04-29T08:57:39.906Z,13.14
2023-04-29T09:00:08.973Z,13.37
2023-04-29T09:02:39.509Z,13.43
2023-04-29T09:05:09.764Z,13.36
2023-04-29T09:07:38.184Z,13.17
2023-04-29T09:10:05.721Z,13.00
2023-04-29T09:12:32.741Z,12.77
2023-04-29T09:15:00.023Z,12.58
2023-04-29T09:17:47.168Z,12.56
2023-04-29T09:20:21.515Z,12.73
2023-04-29T09:22:54.170Z,12.86
2023-04-29T09:25:22.201Z,12.88
2023-04-29T09:27:49.403Z,12.83
2023-04-29T09:30:17.094Z,12.72
2023-04-29T09:32:45.917Z,12.66
2023-04-29T09:35:26.560Z,12.64
2023-04-29T09:37:54.413Z,12.69
2023-04-29T09:40:31.788Z,12.76
2023-04-29T09:42:59.675Z,12.86
2023-04-29T09:45:37.059Z,12.94
2023-04-29T09:48:07.545Z,13.07
2023-04-29T09:50:44.366Z,13.28
2023-04-29T09:53:11.832Z,13.49
2023-04-29T09:55:59.240Z,13.65
2023-04-29T09:58:40.448Z,13.96
2023-04-29T10:01:08.472Z,14.16
2023-04-29T10:03:37.103Z,14.21
2023-04-29T10:06:05.850Z,14.29
2023-04-29T10:08:33.524Z,14.33
2023-04-29T10:11:02.408Z,14.31
2023-04-29T10:13:29.667Z,14.23
2023-04-29T10:15:59.740Z,14.12
2023-04-29T10:18:31.384Z,13.97
2023-04-29T10:20:58.684Z,13.87
2023-04-29T10:23:25.590Z,13.86
2023-04-29T10:25:53.191Z,13.84
2023-04-29T10:28:20.543Z,13.78
2023-04-29T10:30:51.587Z,13.77
2023-04-29T10:33:18.720Z,13.78
2023-04-29T10:35:45.766Z,13.73
2023-04-29T10:38:24.720Z,13.70
2023-04-29T10:40:51.958Z,13.67
2023-04-29T10:43:24.206Z,13.66
2023-04-29T10:45:51.270Z,13.70
2023-04-29T10:48:21.494Z,13.69
2023-04-29T10:50:48.444Z,13.67
2023-04-29T10:53:15.920Z,13.68
2023-04-29T10:55:43.161Z,13.75
2023-04-29T10:58:38.456Z,13.84
2023-04-29T11:01:05.834Z,13.92
2023-04-29T11:03:58.752Z,13.99
2023-04-29T11:06:47.531Z,14.03
2023-04-29T11:09:24.600Z,14.03
2023-04-29T11:12:08.559Z,14.05
2023-04-29T11:14:43.482Z,14.05
2023-04-29T11:17:15.546Z,14.03
2023-04-29T11:19:46.823Z,13.94
2023-04-29T11:22:21.643Z,13.91
2023-04-29T11:24:54.159Z,13.94
2023-04-29T11:27:25.508Z,14.03
2023-04-29T11:29:58.692Z,14.13
2023-04-29T11:32:33.228Z,14.21
2023-04-29T11:35:14.078Z,14.21
2023-04-29T11:37:41.912Z,14.28
2023-04-29T11:40:09.988Z,14.37
2023-04-29T11:42:47.049Z,14.46
2023-04-29T11:45:15.546Z,14.52
2023-04-29T11:47:44.001Z,14.50
2023-04-29T11:50:11.856Z,14.36
2023-04-29T11:52:40.305Z,14.22
2023-04-29T11:55:10.774Z,14.15
2023-04-29T11:57:38.232Z,14.07
2023-04-29T12:00:07.990Z,14.01
2023-04-29T12:02:37.871Z,14.00
2023-04-29T12:05:13.540Z,13.93
2023-04-29T12:07:40.962Z,13.89
2023-04-29T12:10:10.753Z,13.85
2023-04-29T12:12:41.115Z,13.81
2023-04-29T12:15:10.513Z,13.73
2023-04-29T12:17:37.991Z,13.67
2023-04-29T12:20:07.497Z,13.67
2023-04-29T12:22:34.614Z,13.67
2023-04-29T12:25:05.515Z,13.64
2023-04-29T12:27:33.957Z,13.63
2023-04-29T12:30:01.074Z,13.66
2023-04-29T12:32:28.041Z,13.67
2023-04-29T12:34:56.148Z,13.69
2023-04-29T12:37:23.959Z,13.74
2023-04-29T12:39:51.259Z,13.77
2023-04-29T12:42:18.786Z,13.80
2023-04-29T12:44:49.261Z,13.82
2023-04-29T12:47:16.998Z,13.82
2023-04-29T12:49:48.456Z,13.82
2023-04-29T12:52:15.562Z,13.82
2023-04-29T12:54:44.142Z,13.80
2023-04-29T12:57:12.153Z,13.76
2023-04-29T12:59:42.942Z,13.72
2023-04-29T13:02:10.572Z,13.63
2023-04-29T13:04:38.580Z,13.57
2023-04-29T13:07:07.452Z,13.55
2023-04-29T13:09:35.937Z,13.51
2023-04-29T13:12:03.085Z,13.49
2023-04-29T13:14:30.645Z,13.52
2023-04-29T13:16:57.728Z,13.58
2023-04-29T13:19:41.151Z,13.63
2023-04-29T13:22:11.439Z,13.64
2023-04-29T13:24:39.010Z,13.62
2023-04-29T13:27:06.155Z,13.60
2023-04-29T13:29:33.559Z,13.60
2023-04-29T13:32:01.381Z,13.56
2023-04-29T13:34:28.622Z,13.58
2023-04-29T13:36:55.674Z,13.59
2023-04-29T13:39:23.538Z,13.61
2023-04-29T13:41:51.199Z,13.64
2023-04-29T13:44:29.543Z,13.68
2023-04-29T13:47:05.656Z,13.67
2023-04-29T13:52:54.251Z,13.59
2023-04-29T13:55:25.764Z,13.53
2023-04-29T14:00:25.079Z,13.35
2023-04-29T14:05:27.166Z,13.23
2023-04-29T14:07:54.351Z,13.15
2023-04-29T14:10:21.692Z,13.09
2023-04-29T14:12:49.050Z,13.03
2023-04-29T14:15:16.933Z,12.99
2023-04-29T14:17:43.997Z,12.95
2023-04-29T14:20:11.725Z,12.92
2023-04-29T14:22:38.776Z,12.91
2023-04-29T14:25:06.643Z,12.89
2023-04-29T14:27:34.915Z,12.87
2023-04-29T14:30:02.017Z,12.85
2023-04-29T14:32:29.197Z,12.83
2023-04-29T14:34:56.486Z,12.82
2023-04-29T14:37:23.733Z,12.79
2023-04-29T14:39:50.974Z,12.78
2023-04-29T14:42:18.934Z,12.78
2023-04-29T14:44:45.888Z,12.76
2023-04-29T14:47:13.441Z,12.73
2023-04-29T14:49:42.839Z,12.70
2023-04-29T14:52:10.091Z,12.64
2023-04-29T14:54:38.109Z,12.60
2023-04-29T14:57:05.107Z,12.60
2023-04-29T14:59:33.685Z,12.59
2023-04-29T15:02:00.769Z,12.58
2023-04-29T15:04:28.644Z,12.57
2023-04-29T15:06:55.656Z,12.57
2023-04-29T15:09:23.718Z,12.58
2023-04-29T15:11:51.172Z,12.57
2023-04-29T15:14:18.441Z,12.56
2023-04-29T15:16:46.333Z,12.53
2023-04-29T15:19:13.549Z,12.49
2023-04-29T15:21:40.592Z,12.47
2023-04-29T15:24:08.778Z,12.44
2023-04-29T15:26:35.722Z,12.41
2023-04-29T15:29:04.296Z,12.39
2023-04-29T15:31:31.346Z,12.37
2023-04-29T15:33:58.385Z,12.34
2023-04-29T15:36:30.248Z,12.32
2023-04-29T15:38:57.425Z,12.30
2023-04-29T15:41:27.813Z,12.28
2023-04-29T15:43:55.382Z,12.27
2023-04-29T15:46:22.457Z,12.24
2023-04-29T15:48:49.582Z,12.22
2023-04-29T15:51:16.744Z,12.22
2023-04-29T15:53:44.834Z,12.20
2023-04-29T15:56:12.260Z,12.18
2023-04-29T15:58:39.298Z,12.16
2023-04-29T16:01:06.584Z,12.13
2023-04-29T16:03:33.632Z,12.09
2023-04-29T16:06:00.800Z,12.05
2023-04-29T16:08:28.009Z,12.02
2023-04-29T16:10:54.943Z,11.98
2023-04-29T16:13:21.883Z,11.94
2023-04-29T16:15:48.944Z,11.90
2023-04-29T16:18:17.595Z,11.88
2023-04-29T16:20:45.180Z,11.86
2023-04-29T16:23:12.343Z,11.83
2023-04-29T16:25:41.016Z,11.79
2023-04-29T16:28:07.974Z,11.76
2023-04-29T16:30:35.968Z,11.74
2023-04-29T16:33:03.099Z,11.70
2023-04-29T16:35:31.163Z,11.68
2023-04-29T16:37:58.407Z,11.64
2023-04-29T16:40:25.663Z,11.61
2023-04-29T16:42:53.651Z,11.57
2023-04-29T16:45:23.160Z,11.53
2023-04-29T16:47:51.267Z,11.50
2023-04-29T16:50:18.776Z,11.47
2023-04-29T16:52:45.814Z,11.44
2023-04-29T16:55:12.959Z,11.42
2023-04-29T16:57:40.005Z,11.39
2023-04-29T17:00:11.347Z,11.38
2023-04-29T17:02:40.485Z,11.35
2023-04-29T17:05:09.205Z,11.32
2023-04-29T17:07:36.284Z,11.31
2023-04-29T17:10:04.242Z,11.31
2023-04-29T17:12:31.187Z,11.30
2023-04-29T17:14:58.245Z,11.29
2023-04-29T17:17:25.335Z,11.27
2023-04-29T17:19:52.705Z,11.26
2023-04-29T17:22:20.102Z,11.24
2023-04-29T17:24:47.648Z,11.21
2023-04-29T17:27:14.898Z,11.20
2023-04-29T17:29:43.275Z,11.18
2023-04-29T17:32:11.516Z,11.17
2023-04-29T17:34:39.321Z,11.16
2023-04-29T17:37:06.473Z,11.17
2023-04-29T17:39:34.317Z,11.16
2023-04-29T17:42:01.584Z,11.15
2023-04-29T17:44:28.834Z,11.12
2023-04-29T17:46:56.504Z,11.11
2023-04-29T17:49:23.545Z,11.09
2023-04-29T17:51:50.593Z,11.06
2023-04-29T17:54:17.632Z,11.06
2023-04-29T17:56:44.684Z,11.05
2023-04-29T17:59:12.056Z,11.03
2023-04-29T18:01:39.321Z,11.02
2023-04-29T18:04:06.798Z,11.01
2023-04-29T18:06:33.949Z,11.00
2023-04-29T18:09:03.000Z,10.97
2023-04-29T18:11:30.037Z,10.96
2023-04-29T18:13:57.203Z,10.93
2023-04-29T18:16:24.460Z,10.89
2023-04-29T18:18:56.806Z,10.86
2023-04-29T18:21:25.294Z,10.82
2023-04-29T18:23:52.304Z,10.79
2023-04-29T18:26:19.262Z,10.77
2023-04-29T18:28:46.652Z,10.75
2023-04-29T18:31:15.170Z,10.73
2023-04-29T18:33:42.320Z,10.71
2023-04-29T18:36:09.405Z,10.68
2023-04-29T18:38:36.865Z,10.64
2023-04-29T18:41:05.041Z,10.61
2023-04-29T18:43:32.170Z,10.57
2023-04-29T18:45:59.177Z,10.54
2023-04-29T18:48:27.800Z,10.50
2023-04-29T18:50:55.976Z,10.45
2023-04-29T18:53:22.891Z,10.40
2023-04-29T18:55:49.889Z,10.35
2023-04-29T18:58:16.760Z,10.30
2023-04-29T19:00:43.736Z,10.25
2023-04-29T19:03:11.613Z,10.19
2023-04-29T19:05:38.879Z,10.13
2023-04-29T19:08:06.579Z,10.08
2023-04-29T19:10:33.487Z,10.03
2023-04-29T19:13:00.510Z,9.96
2023-04-29T19:15:28.415Z,9.92
2023-04-29T19:21:17.696Z,9.83
2023-04-29T19:23:44.742Z,9.76
2023-04-29T19:26:11.951Z,9.72
2023-04-29T19:28:38.908Z,9.68
2023-04-29T19:31:05.920Z,9.65
2023-04-29T19:33:33.030Z,9.61
2023-04-29T19:36:00.100Z,9.57
2023-04-29T19:38:27.151Z,9.53
2023-04-29T19:40:56.011Z,9.49
2023-04-29T19:43:23.468Z,9.44
2023-04-29T19:45:50.821Z,9.41
2023-04-29T19:48:17.872Z,9.38
2023-04-29T19:50:44.916Z,9.34
2023-04-29T19:53:11.970Z,9.32
2023-04-29T19:55:40.114Z,9.31
2023-04-29T19:58:08.344Z,9.28
2023-04-29T20:00:35.403Z,9.24
2023-04-29T20:03:03.356Z,9.20
2023-04-29T20:05:30.475Z,9.17
2023-04-29T20:07:57.530Z,9.15
2023-04-29T20:10:25.358Z,9.12
2023-04-29T20:12:53.895Z,9.10
2023-04-29T20:15:20.924Z,9.08
2023-04-29T20:17:47.896Z,9.05
2023-04-29T20:20:15.539Z,9.03
2023-04-29T20:22:42.572Z,9.01
2023-04-29T20:25:10.742Z,8.98
2023-04-29T20:27:38.088Z,8.94
2023-04-29T20:30:05.960Z,8.90
2023-04-29T20:32:33.046Z,8.86
2023-04-29T20:35:00.272Z,8.83
2023-04-29T20:37:27.518Z,8.79
2023-04-29T20:39:55.094Z,8.76
2023-04-29T20:42:22.424Z,8.73
2023-04-29T20:44:49.370Z,8.71
2023-04-29T20:47:16.417Z,8.69
2023-04-29T20:49:43.576Z,8.67
2023-04-29T20:52:10.821Z,8.64
2023-04-29T20:54:38.077Z,8.61
2023-04-29T20:58:29.199Z,8.59
2023-04-29T21:00:56.673Z,8.54
2023-04-29T21:03:24.715Z,8.52
2023-04-29T21:05:55.589Z,8.49
2023-04-29T21:08:22.698Z,8.46
2023-04-29T21:10:49.644Z,8.44
2023-04-29T21:13:18.024Z,8.42
2023-04-29T21:15:46.588Z,8.40
2023-04-29T21:18:14.032Z,8.39
2023-04-29T21:20:41.209Z,8.37
2023-04-29T21:23:08.152Z,8.34
2023-04-29T21:25:35.231Z,8.33
2023-04-29T21:28:02.420Z,8.32
2023-04-29T21:30:29.501Z,8.31
2023-04-29T21:32:56.501Z,8.29
2023-04-29T21:35:23.723Z,8.28
2023-04-29T21:37:50.612Z,8.27
2023-04-29T21:40:18.813Z,8.27
2023-04-29T21:42:45.732Z,8.27
2023-04-29T21:45:14.879Z,8.27
2023-04-29T21:47:41.895Z,8.26
2023-04-29T21:50:09.581Z,8.25
2023-04-29T21:52:36.580Z,8.25
2023-04-29T21:55:03.971Z,8.25
2023-04-29T21:57:42.778Z,8.25
2023-04-29T22:00:28.325Z,8.22
2023-04-29T22:02:55.299Z,8.20
2023-04-29T22:05:22.364Z,8.18
2023-04-29T22:07:49.250Z,8.16
2023-04-29T22:10:16.354Z,8.14
2023-04-29T22:12:43.320Z,8.14
2023-04-29T22:15:26.916Z,8.13
2023-04-29T22:21:22.152Z,8.13
2023-04-29T22:23:49.253Z,8.09
2023-04-29T22:26:16.348Z,8.06
2023-04-29T22:28:43.290Z,8.05
2023-04-29T22:31:10.251Z,8.03
2023-04-29T22:33:37.285Z,8.01
2023-04-29T22:36:05.473Z,7.98
2023-04-29T22:38:32.444Z,7.96
2023-04-29T22:40:59.757Z,7.93
2023-04-29T22:43:27.006Z,7.91
2023-04-29T22:45:54.839Z,7.90
2023-04-29T22:48:23.595Z,7.88
2023-04-29T22:50:56.237Z,7.87
2023-04-29T22:53:23.297Z,7.87
2023-04-29T22:55:50.941Z,7.85
2023-04-29T22:58:18.398Z,7.84
2023-04-29T23:00:46.379Z,7.82
2023-04-29T23:03:13.421Z,7.80
2023-04-29T23:05:41.286Z,7.76
2023-04-29T23:08:08.656Z,7.74
2023-04-29T23:10:35.697Z,7.71
2023-04-29T23:13:02.729Z,7.69
2023-04-29T23:15:29.820Z,7.67
2023-04-29T23:18:00.052Z,7.65
2023-04-29T23:20:27.156Z,7.63
2023-04-29T23:22:54.190Z,7.61
2023-04-29T23:25:21.346Z,7.59
2023-04-29T23:27:48.311Z,7.57
2023-04-29T23:30:15.337Z,7.56
2023-04-29T23:32:42.356Z,7.55
2023-04-29T23:35:11.683Z,7.53
2023-04-29T23:37:39.140Z,7.50
2023-04-29T23:40:07.483Z,7.46
2023-04-29T23:42:34.477Z,7.42
2023-04-29T23:45:01.514Z,7.37
2023-04-29T23:47:28.571Z,7.31
2023-04-29T23:49:55.838Z,7.25
2023-04-29T23:52:23.466Z,7.20
2023-04-29T23:54:51.025Z,7.13
2023-04-29T23:57:18.182Z,7.08
2023-04-29T23:59:45.844Z,7.04
